createdAt,value
2019-05-20T00:00:58.315Z,22.75
2019-05-20T00:03:28.067Z,21.65
2019-05-20T00:05:57.783Z,23.77
2019-05-20T00:08:27.072Z,20.25
2019-05-20T00:10:56.676Z,21.25
2019-05-20T00:13:25.946Z,22.77
2019-05-20T00:15:55.308Z,24.92
2019-05-20T00:18:24.674Z,20.05
2019-05-20T00:20:54.232Z,21.45
2019-05-20T00:23:23.803Z,20.70
2019-05-20T00:25:56.383Z,27.37
2019-05-20T00:28:27.751Z,21.42
2019-05-20T00:30:57.410Z,27.48
2019-05-20T00:33:27.019Z,22.75
2019-05-20T00:35:59.197Z,21.20
2019-05-20T00:38:28.901Z,18.95
2019-05-20T00:41:01.565Z,20.70
2019-05-20T00:43:34.295Z,19.73
2019-05-20T00:46:04.491Z,20.32
2019-05-20T00:48:34.403Z,24.20
2019-05-20T00:51:04.513Z,24.92
2019-05-20T00:53:33.934Z,21.02
2019-05-20T00:56:03.424Z,25.05
2019-05-20T00:58:32.924Z,23.18
2019-05-20T01:01:02.346Z,22.37
2019-05-20T01:03:33.048Z,23.25
2019-05-20T01:06:02.596Z,19.77
2019-05-20T01:08:33.817Z,25.25
2019-05-20T01:11:03.132Z,22.40
2019-05-20T01:13:32.558Z,21.48
2019-05-20T01:16:01.916Z,25.43
2019-05-20T01:18:31.270Z,23.57
2019-05-20T01:21:01.151Z,22.85
2019-05-20T01:23:30.554Z,21.82
2019-05-20T01:26:00.014Z,20.65
2019-05-20T01:28:29.796Z,22.98
2019-05-20T01:30:58.990Z,24.67
2019-05-20T01:33:28.281Z,25.25
2019-05-20T01:35:57.524Z,32.13
2019-05-20T01:38:26.889Z,22.10
2019-05-20T01:40:59.369Z,23.12
2019-05-20T01:43:29.159Z,23.38
2019-05-20T01:45:58.508Z,23.90
2019-05-20T01:48:28.016Z,22.22
2019-05-20T01:50:59.475Z,27.55
2019-05-20T01:53:29.349Z,21.33
2019-05-20T01:56:02.047Z,24.40
2019-05-20T01:58:31.783Z,22.40
2019-05-20T02:01:01.349Z,24.18
2019-05-20T02:03:32.400Z,22.93
2019-05-20T02:06:05.175Z,22.02
2019-05-20T02:08:34.451Z,22.35
2019-05-20T02:11:05.351Z,21.37
2019-05-20T02:13:53.369Z,23.55
2019-05-20T02:16:23.308Z,19.70
2019-05-20T02:21:21.194Z,25.17
2019-05-20T02:23:50.648Z,22.62
2019-05-20T02:26:20.089Z,26.40
2019-05-20T02:28:49.559Z,24.55
2019-05-20T02:31:18.933Z,25.40
2019-05-20T02:33:52.951Z,20.85
2019-05-20T02:36:21.974Z,24.35
2019-05-20T02:38:51.952Z,22.32
2019-05-20T02:43:51.469Z,19.98
2019-05-20T02:46:21.285Z,25.80
2019-05-20T02:48:50.582Z,19.27
2019-05-20T02:51:31.360Z,21.40
2019-05-20T02:54:02.152Z,19.98
2019-05-20T02:56:31.801Z,20.72
2019-05-20T02:59:01.758Z,22.75
2019-05-20T03:01:31.326Z,26.52
2019-05-20T03:04:11.728Z,20.27
2019-05-20T03:06:32.590Z,23.35
2019-05-20T03:09:01.894Z,25.50
2019-05-20T03:11:31.285Z,21.55
2019-05-20T03:14:00.731Z,23.47
2019-05-20T03:16:29.975Z,28.45
2019-05-20T03:18:59.314Z,21.62
2019-05-20T03:21:31.706Z,22.60
2019-05-20T03:24:01.066Z,21.55
2019-05-20T03:26:30.378Z,25.23
2019-05-20T03:28:59.858Z,25.27
2019-05-20T03:31:29.378Z,23.32
2019-05-20T03:33:58.638Z,25.88
2019-05-20T03:36:29.010Z,25.63
2019-05-20T03:38:58.365Z,21.57
2019-05-20T03:41:27.668Z,24.50
2019-05-20T03:43:57.200Z,20.97
2019-05-20T03:46:27.143Z,23.77
2019-05-20T03:48:56.467Z,22.58
2019-05-20T03:51:26.038Z,23.02
2019-05-20T03:53:55.391Z,21.97
2019-05-20T03:56:24.828Z,24.25
2019-05-20T03:58:54.246Z,27.90
2019-05-20T04:01:26.823Z,23.87
2019-05-20T04:03:56.348Z,23.75
2019-05-20T04:06:25.820Z,21.60
2019-05-20T04:08:55.201Z,19.45
2019-05-20T04:11:27.916Z,24.57
2019-05-20T04:13:57.414Z,24.10
2019-05-20T04:16:32.723Z,32.93
2019-05-20T04:19:02.283Z,21.60
2019-05-20T04:21:32.902Z,27.52
2019-05-20T04:24:02.713Z,25.27
2019-05-20T04:26:32.298Z,27.52
2019-05-20T04:29:02.263Z,26.62
2019-05-20T04:31:31.502Z,28.00
2019-05-20T04:34:00.872Z,30.27
2019-05-20T04:36:30.666Z,25.45
2019-05-20T04:38:59.949Z,24.70
2019-05-20T04:41:29.299Z,24.07
2019-05-20T04:43:58.759Z,21.97
2019-05-20T04:46:28.081Z,20.90
2019-05-20T04:48:57.503Z,25.17
2019-05-20T04:51:26.707Z,23.77
2019-05-20T04:53:56.058Z,22.55
2019-05-20T04:56:28.994Z,27.37
2019-05-20T04:58:56.276Z,22.80
2019-05-20T05:01:25.603Z,24.60
2019-05-20T05:03:54.874Z,21.02
2019-05-20T05:06:24.529Z,26.23
2019-05-20T05:08:54.015Z,22.45
2019-05-20T05:11:23.540Z,27.82
2019-05-20T05:13:54.648Z,21.35
2019-05-20T05:16:24.091Z,22.60
2019-05-20T05:18:53.376Z,24.35
2019-05-20T05:21:22.747Z,24.95
2019-05-20T05:23:59.101Z,21.25
2019-05-20T05:26:23.189Z,22.58
2019-05-20T05:28:52.806Z,26.68
2019-05-20T05:31:25.100Z,24.77
2019-05-20T05:33:54.863Z,23.73
2019-05-20T05:36:29.072Z,22.37
2019-05-20T05:38:58.762Z,22.73
2019-05-20T05:41:28.586Z,24.05
2019-05-20T05:43:58.101Z,23.35
2019-05-20T05:46:27.535Z,23.52
2019-05-20T05:48:56.905Z,25.00
2019-05-20T05:51:26.239Z,25.97
2019-05-20T05:53:55.664Z,25.62
2019-05-20T05:56:25.071Z,25.95
2019-05-20T05:58:54.539Z,22.00
2019-05-20T06:01:23.920Z,22.85
2019-05-20T06:03:53.320Z,27.60
2019-05-20T06:06:22.981Z,24.18
2019-05-20T06:08:52.691Z,27.20
2019-05-20T06:11:22.100Z,18.90
2019-05-20T06:13:51.622Z,24.02
2019-05-20T06:16:35.415Z,23.75
2019-05-20T06:18:52.222Z,24.15
2019-05-20T06:21:21.834Z,21.52
2019-05-20T06:23:52.429Z,23.32
2019-05-20T06:26:25.261Z,18.12
2019-05-20T06:28:55.406Z,21.87
2019-05-20T06:31:25.620Z,25.45
2019-05-20T06:33:56.294Z,22.07
2019-05-20T06:36:27.472Z,18.23
2019-05-20T06:39:13.335Z,20.25
2019-05-20T06:41:43.875Z,18.85
2019-05-20T06:44:13.505Z,19.20
2019-05-20T06:46:42.692Z,18.15
2019-05-20T06:49:12.231Z,22.90
2019-05-20T06:51:44.014Z,20.75
2019-05-20T06:54:13.548Z,20.10
2019-05-20T06:56:43.104Z,20.72
2019-05-20T06:59:12.697Z,17.25
2019-05-20T07:01:42.365Z,21.20
2019-05-20T07:04:11.841Z,15.78
2019-05-20T07:06:46.860Z,16.42
2019-05-20T07:09:12.702Z,21.42
2019-05-20T07:11:51.923Z,17.23
2019-05-20T07:14:13.223Z,16.75
2019-05-20T07:16:42.946Z,21.33
2019-05-20T07:19:12.407Z,17.10
2019-05-20T07:21:41.861Z,17.70
2019-05-20T07:24:11.393Z,16.15
2019-05-20T07:26:40.874Z,17.90
2019-05-20T07:29:10.417Z,18.45
2019-05-20T07:31:39.917Z,19.95
2019-05-20T07:34:15.252Z,17.57
2019-05-20T07:37:01.440Z,15.78
2019-05-20T07:39:16.236Z,16.37
2019-05-20T07:41:45.537Z,17.20
2019-05-20T07:44:15.019Z,14.20
2019-05-20T07:46:44.451Z,17.55
2019-05-20T07:49:15.567Z,15.78
2019-05-20T07:51:46.812Z,15.40
2019-05-20T07:54:17.544Z,13.25
2019-05-20T07:56:49.864Z,17.70
2019-05-20T07:59:21.301Z,14.65
2019-05-20T08:01:50.568Z,20.17
2019-05-20T08:04:19.947Z,16.15
2019-05-20T08:06:49.453Z,18.23
2019-05-20T08:09:19.287Z,16.07
2019-05-20T08:11:52.861Z,16.20
2019-05-20T08:14:22.496Z,15.78
2019-05-20T08:16:52.035Z,14.80
2019-05-20T08:19:21.555Z,16.45
2019-05-20T08:21:59.058Z,13.53
2019-05-20T08:24:31.023Z,18.57
2019-05-20T08:27:02.205Z,12.85
2019-05-20T08:29:32.173Z,15.43
2019-05-20T08:34:33.875Z,12.15
2019-05-20T08:37:03.402Z,16.57
2019-05-20T08:39:32.834Z,16.60
2019-05-20T08:42:03.812Z,14.47
2019-05-20T08:44:33.178Z,13.98
2019-05-20T08:47:02.775Z,16.60
2019-05-20T08:49:32.291Z,13.83
2019-05-20T08:52:04.177Z,10.85
2019-05-20T08:54:33.532Z,15.95
2019-05-20T08:57:03.035Z,14.90
2019-05-20T08:59:32.565Z,13.72
2019-05-20T09:02:02.035Z,12.65
2019-05-20T09:04:31.674Z,16.05
2019-05-20T09:07:01.612Z,14.63
2019-05-20T09:09:31.373Z,19.75
2019-05-20T09:12:03.063Z,14.25
2019-05-20T09:14:32.737Z,10.98
2019-05-20T09:17:02.093Z,17.20
2019-05-20T09:19:31.821Z,12.13
2019-05-20T09:22:01.212Z,11.38
2019-05-20T09:24:30.660Z,13.20
2019-05-20T09:27:00.899Z,10.50
2019-05-20T09:29:40.019Z,15.03
2019-05-20T09:32:12.456Z,11.60
2019-05-20T09:34:42.393Z,10.90
2019-05-20T09:39:40.238Z,13.20
2019-05-20T09:42:09.882Z,10.80
2019-05-20T09:44:39.532Z,13.88
2019-05-20T09:47:09.097Z,10.72
2019-05-20T09:49:40.383Z,10.80
2019-05-20T09:52:09.853Z,13.53
2019-05-20T09:54:39.119Z,10.82
2019-05-20T09:57:08.500Z,14.47
2019-05-20T09:59:43.118Z,10.75
2019-05-20T10:02:08.761Z,14.65
2019-05-20T10:04:38.067Z,13.22
2019-05-20T10:07:09.452Z,8.35
2019-05-20T10:09:39.002Z,13.65
2019-05-20T10:12:08.431Z,13.93
2019-05-20T10:14:37.805Z,12.33
2019-05-20T10:17:07.274Z,10.50
2019-05-20T10:19:36.815Z,10.88
2019-05-20T10:22:07.683Z,11.93
2019-05-20T10:24:37.405Z,11.08
2019-05-20T10:27:10.076Z,13.25
2019-05-20T10:29:39.735Z,11.38
2019-05-20T10:32:09.146Z,11.40
2019-05-20T10:34:38.693Z,16.62
2019-05-20T10:37:08.234Z,14.25
2019-05-20T10:39:37.934Z,16.32
2019-05-20T10:42:07.938Z,12.58
2019-05-20T10:44:41.746Z,10.00
2019-05-20T10:47:09.346Z,14.07
2019-05-20T10:49:39.325Z,11.88
2019-05-20T10:52:08.768Z,11.00
2019-05-20T10:54:38.187Z,11.68
2019-05-20T10:57:07.699Z,10.15
2019-05-20T10:59:37.287Z,9.60
2019-05-20T11:02:06.753Z,9.80
2019-05-20T11:04:36.296Z,11.18
2019-05-20T11:07:06.023Z,10.35
2019-05-20T11:09:35.386Z,12.33
2019-05-20T11:12:06.064Z,12.15
2019-05-20T11:14:35.665Z,11.73
2019-05-20T11:17:05.117Z,8.38
2019-05-20T11:19:34.497Z,12.58
2019-05-20T11:22:03.999Z,8.53
2019-05-20T11:24:33.400Z,7.83
2019-05-20T11:27:03.401Z,8.35
2019-05-20T11:29:32.827Z,9.68
2019-05-20T11:32:02.602Z,10.32
2019-05-20T11:37:00.542Z,10.25
2019-05-20T11:39:33.778Z,9.80
2019-05-20T11:42:01.080Z,11.48
2019-05-20T11:44:30.482Z,10.78
2019-05-20T11:47:01.118Z,9.48
2019-05-20T11:49:32.209Z,8.25
2019-05-20T11:52:01.876Z,9.95
2019-05-20T11:54:31.409Z,9.33
2019-05-20T11:57:03.441Z,8.03
2019-05-20T11:59:32.991Z,11.73
2019-05-20T12:02:04.132Z,13.45
2019-05-20T12:04:35.288Z,13.70
2019-05-20T12:07:08.678Z,18.07
2019-05-20T12:09:49.161Z,14.47
2019-05-20T12:12:09.143Z,15.83
2019-05-20T12:14:38.478Z,14.13
2019-05-20T12:17:07.759Z,14.28
2019-05-20T12:19:37.332Z,14.65
2019-05-20T12:22:06.630Z,13.00
2019-05-20T12:24:35.977Z,12.70
2019-05-20T12:27:07.336Z,13.60
2019-05-20T12:29:36.381Z,15.35
2019-05-20T12:32:05.803Z,17.90
2019-05-20T12:34:35.270Z,8.93
2019-05-20T12:37:04.608Z,12.73
2019-05-20T12:39:35.948Z,10.10
2019-05-20T12:42:05.242Z,12.50
2019-05-20T12:44:34.679Z,15.30
2019-05-20T12:47:04.103Z,12.85
2019-05-20T12:49:33.586Z,15.15
2019-05-20T12:52:03.322Z,11.33
2019-05-20T12:54:32.656Z,12.82
2019-05-20T12:57:01.826Z,12.78
2019-05-20T12:59:31.340Z,14.83
2019-05-20T13:02:00.784Z,12.78
2019-05-20T13:04:30.321Z,16.00
2019-05-20T13:06:59.649Z,12.15
2019-05-20T13:09:28.809Z,12.95
2019-05-20T13:11:57.950Z,13.60
2019-05-20T13:14:27.204Z,16.15
2019-05-20T13:16:56.448Z,11.22
2019-05-20T13:19:25.784Z,18.60
2019-05-20T13:21:54.978Z,12.58
2019-05-20T13:24:25.104Z,12.30
2019-05-20T13:26:54.210Z,12.82
2019-05-20T13:29:23.492Z,18.32
2019-05-20T13:31:52.770Z,13.15
2019-05-20T13:34:22.024Z,16.70
2019-05-20T13:36:51.251Z,16.48
2019-05-20T13:39:20.430Z,13.58
2019-05-20T13:41:49.642Z,11.75
2019-05-20T13:44:21.860Z,16.17
2019-05-20T13:46:51.249Z,16.80
2019-05-20T13:49:20.404Z,11.78
2019-05-20T13:51:49.635Z,13.22
2019-05-20T13:54:19.059Z,18.35
2019-05-20T13:56:48.441Z,14.40
2019-05-20T13:59:17.759Z,14.10
2019-05-20T14:01:47.183Z,14.05
2019-05-20T14:04:18.178Z,14.45
2019-05-20T14:06:47.441Z,15.90
2019-05-20T14:09:17.208Z,14.03
2019-05-20T14:14:14.726Z,15.03
2019-05-20T14:16:44.588Z,13.53
2019-05-20T14:21:41.975Z,18.05
2019-05-20T14:24:11.235Z,19.40
2019-05-20T14:26:43.173Z,23.67
2019-05-20T14:29:12.527Z,20.75
2019-05-20T14:31:42.117Z,14.60
2019-05-20T14:34:11.542Z,14.43
2019-05-20T14:36:41.042Z,14.25
2019-05-20T14:39:10.575Z,18.48
2019-05-20T14:41:39.799Z,19.87
2019-05-20T14:44:09.301Z,19.52
2019-05-20T14:46:38.630Z,17.67
2019-05-20T14:49:08.015Z,14.63
2019-05-20T14:51:37.293Z,17.65
2019-05-20T14:54:06.538Z,19.37
2019-05-20T14:56:35.757Z,21.68
2019-05-20T14:59:05.055Z,24.63
2019-05-20T15:01:34.380Z,16.42
2019-05-20T15:04:03.621Z,17.65
2019-05-20T15:06:32.974Z,18.02
2019-05-20T15:09:02.203Z,18.75
2019-05-20T15:11:38.048Z,20.43
2019-05-20T15:14:02.353Z,20.17
2019-05-20T15:16:31.658Z,20.35
2019-05-20T15:19:00.819Z,26.42
2019-05-20T15:21:30.161Z,25.15
2019-05-20T15:24:00.688Z,15.43
2019-05-20T15:26:30.115Z,10.38
2019-05-20T15:28:59.506Z,6.47
2019-05-20T15:31:28.724Z,5.87
2019-05-20T15:33:58.026Z,7.60
2019-05-20T15:36:27.348Z,4.25
2019-05-20T15:38:56.493Z,6.65
2019-05-20T15:41:25.819Z,6.63
2019-05-20T15:43:54.977Z,9.70
2019-05-20T15:46:24.456Z,8.27
2019-05-20T15:48:53.725Z,10.48
2019-05-20T15:51:23.043Z,9.33
2019-05-20T15:53:52.279Z,7.20
2019-05-20T15:56:21.731Z,10.37
2019-05-20T15:58:52.287Z,8.35
2019-05-20T16:01:21.674Z,7.33
2019-05-20T16:04:10.070Z,11.97
2019-05-20T16:06:39.297Z,12.43
2019-05-20T16:09:09.091Z,13.45
2019-05-20T16:11:38.384Z,9.25
2019-05-20T16:14:07.898Z,9.35
2019-05-20T16:16:37.272Z,10.88
2019-05-20T16:19:06.629Z,15.03
2019-05-20T16:21:36.173Z,13.43
2019-05-20T16:24:06.904Z,13.13
2019-05-20T16:26:36.231Z,11.40
2019-05-20T16:29:05.731Z,13.58
2019-05-20T16:31:34.918Z,15.55
2019-05-20T16:34:04.674Z,13.95
2019-05-20T16:36:34.233Z,15.83
2019-05-20T16:39:10.111Z,13.30
2019-05-20T16:41:39.730Z,16.42
2019-05-20T16:44:09.337Z,15.32
2019-05-20T16:46:38.602Z,16.75
2019-05-20T16:49:07.850Z,18.77
2019-05-20T16:51:38.938Z,20.68
2019-05-20T16:54:08.443Z,16.00
2019-05-20T16:56:37.899Z,22.32
2019-05-20T16:59:07.155Z,14.83
2019-05-20T17:01:45.872Z,18.65
2019-05-20T17:04:08.643Z,20.37
2019-05-20T17:06:37.889Z,16.40
2019-05-20T17:09:07.206Z,23.92
2019-05-20T17:11:37.734Z,16.85
2019-05-20T17:14:10.402Z,20.70
2019-05-20T17:16:38.042Z,20.90
2019-05-20T17:19:07.523Z,29.32
2019-05-20T17:21:36.901Z,21.20
2019-05-20T17:24:06.222Z,19.02
2019-05-20T17:26:35.391Z,20.85
2019-05-20T17:29:04.752Z,22.10
2019-05-20T17:31:33.963Z,23.62
2019-05-20T17:34:03.439Z,23.27
2019-05-20T17:36:32.935Z,21.07
2019-05-20T17:39:02.296Z,21.70
2019-05-20T17:41:31.742Z,19.65
2019-05-20T17:44:00.935Z,20.55
2019-05-20T17:46:30.298Z,26.40
2019-05-20T17:48:59.467Z,22.80
2019-05-20T17:51:28.626Z,23.83
2019-05-20T17:53:57.859Z,28.47
2019-05-20T17:56:27.256Z,25.08
2019-05-20T17:58:56.502Z,26.20
2019-05-20T18:01:25.866Z,25.95
2019-05-20T18:03:55.123Z,21.62
2019-05-20T18:06:24.618Z,21.82
2019-05-20T18:08:55.768Z,19.73
2019-05-20T18:11:24.983Z,20.90
2019-05-20T18:13:54.384Z,18.95
2019-05-20T18:16:23.675Z,21.15
2019-05-20T18:18:53.097Z,23.12
2019-05-20T18:21:22.332Z,24.67
2019-05-20T18:23:51.515Z,25.05
2019-05-20T18:26:20.788Z,17.77
2019-05-20T18:28:50.180Z,21.30
2019-05-20T18:31:32.145Z,22.00
2019-05-20T18:33:50.502Z,24.57
2019-05-20T18:36:19.851Z,19.95
2019-05-20T18:38:49.747Z,22.17
2019-05-20T18:41:19.236Z,21.70
2019-05-20T18:43:48.403Z,24.55
2019-05-20T18:46:17.628Z,18.37
2019-05-20T18:48:51.794Z,22.32
2019-05-20T18:51:21.939Z,19.50
2019-05-20T18:53:51.658Z,24.32
2019-05-20T18:56:21.063Z,27.17
2019-05-20T18:58:50.479Z,32.25
2019-05-20T19:01:19.876Z,29.00
2019-05-20T19:03:49.205Z,26.65
2019-05-20T19:06:18.505Z,27.30
2019-05-20T19:08:47.941Z,27.42
2019-05-20T19:11:17.336Z,49.25
2019-05-20T19:13:46.931Z,28.65
2019-05-20T19:16:16.213Z,25.97
2019-05-20T19:18:47.467Z,23.85
2019-05-20T19:21:16.870Z,28.27
2019-05-20T19:23:46.257Z,24.82
2019-05-20T19:26:24.568Z,23.98
2019-05-20T19:28:49.996Z,20.15
2019-05-20T19:31:19.869Z,23.95
2019-05-20T19:36:21.510Z,21.27
2019-05-20T19:38:53.882Z,18.92
2019-05-20T19:41:24.142Z,18.77
2019-05-20T19:43:57.106Z,20.52
2019-05-20T19:46:26.919Z,19.75
2019-05-20T19:48:58.615Z,23.80
2019-05-20T19:51:28.302Z,21.40
2019-05-20T19:53:57.858Z,21.17
2019-05-20T19:56:27.606Z,22.50
2019-05-20T19:58:57.883Z,16.82
2019-05-20T20:01:27.691Z,22.07
2019-05-20T20:03:57.817Z,20.02
2019-05-20T20:06:27.747Z,15.53
2019-05-20T20:11:30.073Z,16.43
2019-05-20T20:14:00.872Z,19.90
2019-05-20T20:16:34.172Z,22.20
2019-05-20T20:19:04.732Z,16.93
2019-05-20T20:21:35.049Z,16.97
2019-05-20T20:24:05.374Z,22.87
2019-05-20T20:26:34.741Z,23.02
2019-05-20T20:29:04.352Z,20.15
2019-05-20T20:31:33.821Z,22.70
2019-05-20T20:34:03.116Z,18.77
2019-05-20T20:36:35.610Z,21.20
2019-05-20T20:39:06.053Z,20.88
2019-05-20T20:41:35.600Z,19.57
2019-05-20T20:44:05.307Z,22.98
2019-05-20T20:46:34.807Z,20.82
2019-05-20T20:49:04.373Z,19.07
2019-05-20T20:51:33.735Z,20.97
2019-05-20T20:54:03.094Z,20.88
2019-05-20T20:56:38.153Z,59.08
2019-05-20T20:59:07.615Z,37.20
2019-05-20T21:01:37.059Z,21.07
2019-05-20T21:04:07.247Z,22.58
2019-05-20T21:06:36.618Z,25.15
2019-05-20T21:09:07.112Z,24.70
2019-05-20T21:11:36.726Z,20.52
2019-05-20T21:14:06.326Z,23.10
2019-05-20T21:16:35.834Z,22.25
2019-05-20T21:19:05.341Z,18.37
2019-05-20T21:21:34.674Z,19.30
2019-05-20T21:24:04.070Z,21.52
2019-05-20T21:26:33.604Z,18.98
2019-05-20T21:29:02.908Z,23.18
2019-05-20T21:31:33.994Z,24.18
2019-05-20T21:34:03.290Z,23.67
2019-05-20T21:36:46.613Z,19.90
2019-05-20T21:39:05.802Z,23.95
2019-05-20T21:41:44.660Z,21.55
2019-05-20T21:44:13.992Z,20.82
2019-05-20T21:46:43.140Z,23.77
2019-05-20T21:49:12.637Z,23.25
2019-05-20T21:51:42.249Z,28.40
2019-05-20T21:54:11.783Z,27.55
2019-05-20T21:56:41.135Z,21.00
2019-05-20T21:59:10.656Z,21.65
2019-05-20T22:01:40.113Z,22.82
2019-05-20T22:04:09.361Z,22.32
2019-05-20T22:06:38.735Z,24.52
2019-05-20T22:09:08.479Z,26.15
2019-05-20T22:11:38.309Z,27.95
2019-05-20T22:14:07.682Z,24.30
2019-05-20T22:16:37.439Z,33.15
2019-05-20T22:19:07.153Z,24.15
2019-05-20T22:21:43.524Z,26.85
2019-05-20T22:24:13.139Z,26.55
2019-05-20T22:26:42.827Z,23.77
2019-05-20T22:29:16.302Z,25.37
2019-05-20T22:31:49.665Z,23.52
2019-05-20T22:34:19.234Z,24.43
2019-05-20T22:36:48.888Z,25.00
2019-05-20T22:39:18.506Z,24.12
2019-05-20T22:41:48.115Z,26.15
2019-05-20T22:44:17.770Z,24.82
2019-05-20T22:46:47.277Z,25.32
2019-05-20T22:49:16.828Z,30.92
2019-05-20T22:51:46.389Z,23.38
2019-05-20T22:54:15.835Z,28.67
2019-05-20T22:56:45.403Z,26.00
2019-05-20T22:59:14.864Z,24.30
2019-05-20T23:01:44.450Z,25.75
2019-05-20T23:04:15.897Z,30.92
2019-05-20T23:06:45.213Z,24.63
2019-05-20T23:09:15.097Z,26.25
2019-05-20T23:14:13.328Z,28.05
2019-05-20T23:16:42.923Z,29.30
2019-05-20T23:19:13.159Z,26.50
2019-05-20T23:21:42.743Z,32.85
2019-05-20T23:24:12.022Z,24.50
2019-05-20T23:26:41.403Z,24.50
2019-05-20T23:29:10.657Z,28.17
2019-05-20T23:31:40.106Z,32.30
2019-05-20T23:34:12.766Z,25.10
2019-05-20T23:36:40.599Z,27.95
2019-05-20T23:39:10.204Z,28.62
2019-05-20T23:41:39.840Z,30.92
2019-05-20T23:44:09.219Z,28.23
2019-05-20T23:46:38.804Z,28.83
2019-05-20T23:49:08.342Z,33.30
2019-05-20T23:51:37.708Z,30.43
2019-05-20T23:54:07.319Z,32.60
2019-05-20T23:56:36.958Z,27.15
2019-05-20T23:59:06.556Z,29.52
